Time;durP1;ratioP1;P1;durP2;ratioP2;P2;SDS_P1;SDS_P2;PMS_P1;PMS_P2;Temp;Humidity;BMP_temperature;BMP_pressure;BME280_temperature;BME280_humidity;BME280_pressure;Samples;Min_cycle;Max_cycle;Signal;HPM_P1;HPM_P2
2023/02/04 00:01:56;;;;;;;3.63;2.25;;;;;;;3.06;95.50;101706.88;5019643;28;20178;-70
2023/02/04 00:04:26;;;;;;;2.05;1.75;;;;;;;2.97;97.82;101732.59;5005027;28;20212;-68
2023/02/04 00:06:57;;;;;;;2.35;1.50;;;;;;;2.99;98.92;101741.34;4999311;28;20222;-70
2023/02/04 00:09:27;;;;;;;5.88;1.90;;;;;;;2.96;98.53;101735.38;4997621;28;20284;-70
2023/02/04 00:11:59;;;;;;;6.13;2.28;;;;;;;2.91;98.12;101743.81;4996669;28;20205;-70
2023/02/04 00:14:33;;;;;;;2.50;1.40;;;;;;;2.96;97.79;101757.63;5000777;28;20190;-70
2023/02/04 00:17:06;;;;;;;2.03;1.50;;;;;;;2.93;98.63;101765.91;5027693;28;20248;-69
2023/02/04 00:19:39;;;;;;;2.67;1.60;;;;;;;2.95;97.58;101771.16;5009125;28;20280;-69
2023/02/04 00:22:12;;;;;;;1.75;1.02;;;;;;;2.95;95.99;101788.00;5001317;28;20304;-69
2023/02/04 00:24:47;;;;;;;1.88;1.25;;;;;;;3.01;95.63;101789.31;5016916;28;20229;-69
2023/02/04 00:27:20;;;;;;;2.42;2.03;;;;;;;3.05;94.97;101814.81;5011308;28;20221;-70
2023/02/04 00:29:50;;;;;;;4.63;1.90;;;;;;;3.04;96.11;101815.81;4987524;28;20296;-69
2023/02/04 00:32:23;;;;;;;1.80;1.25;;;;;;;2.88;97.93;101810.06;4999560;28;20217;-71
2023/02/04 00:34:56;;;;;;;2.78;1.30;;;;;;;2.76;98.88;101825.31;5014533;28;20196;-69
2023/02/04 00:37:34;;;;;;;4.57;3.25;;;;;;;2.66;99.42;101839.59;5013717;28;20220;-69
2023/02/04 00:40:08;;;;;;;4.45;2.92;;;;;;;2.61;99.61;101854.16;5002538;28;20217;-69
2023/02/04 00:42:42;;;;;;;3.65;1.90;;;;;;;2.60;99.05;101878.34;5004354;28;20197;-70
2023/02/04 00:45:14;;;;;;;4.40;2.08;;;;;;;2.53;96.85;101888.69;4990662;28;20210;-70
2023/02/04 00:47:47;;;;;;;2.70;1.63;;;;;;;2.56;96.45;101892.94;5001810;28;20202;-70
2023/02/04 00:50:21;;;;;;;3.88;1.70;;;;;;;2.47;96.86;101904.41;5019539;28;20205;-69
2023/02/04 00:52:52;;;;;;;5.15;1.63;;;;;;;2.36;97.37;101918.63;5005065;28;20252;-69
2023/02/04 00:55:22;;;;;;;3.03;1.30;;;;;;;2.29;97.54;101937.91;5005908;28;20202;-68
2023/02/04 00:57:53;;;;;;;1.77;1.20;;;;;;;2.15;98.29;101947.91;5007684;28;20202;-70
2023/02/04 01:00:25;;;;;;;1.75;1.42;;;;;;;2.08;98.83;101952.00;4999626;28;20238;-70
2023/02/04 01:02:58;;;;;;;3.75;1.60;;;;;;;1.99;99.64;101968.75;5003108;28;20751;-71
2023/02/04 01:05:29;;;;;;;1.75;1.13;;;;;;;1.98;99.33;101972.44;5002809;28;20202;-70
2023/02/04 01:08:02;;;;;;;2.78;1.40;;;;;;;1.95;99.39;101975.31;5005408;28;20205;-69
2023/02/04 01:10:33;;;;;;;4.25;1.67;;;;;;;2.00;98.88;101986.50;5000202;28;20196;-69
2023/02/04 01:13:04;;;;;;;4.88;1.98;;;;;;;2.05;98.02;102000.31;4998314;28;20323;-70
2023/02/04 01:15:35;;;;;;;2.58;1.45;;;;;;;1.99;97.85;102000.81;5006978;28;20197;-69
2023/02/04 01:18:13;;;;;;;3.05;2.28;;;;;;;1.96;98.10;102006.41;5007611;28;20201;-70
2023/02/04 01:20:48;;;;;;;2.55;1.08;;;;;;;1.96;98.34;102011.72;5017234;28;20202;-69
2023/02/04 01:23:19;;;;;;;2.70;1.27;;;;;;;2.06;98.06;102023.41;4999447;28;20200;-70
2023/02/04 01:25:51;;;;;;;1.65;1.13;;;;;;;2.07;97.88;102034.94;4999570;28;20222;-69
2023/02/04 01:28:23;;;;;;;2.35;1.55;;;;;;;2.05;98.00;102042.19;4996810;28;20696;-69
2023/02/04 01:30:55;;;;;;;2.55;1.20;;;;;;;2.03;98.04;102047.66;5000086;28;20194;-70
2023/02/04 01:33:29;;;;;;;4.40;1.35;;;;;;;2.02;98.32;102058.47;4990674;28;20199;-70
2023/02/04 01:36:02;;;;;;;2.78;1.30;;;;;;;1.94;98.45;102075.06;5018521;28;20224;-69
2023/02/04 01:38:32;;;;;;;2.75;1.08;;;;;;;1.92;98.82;102069.00;5014941;28;20201;-69
2023/02/04 01:41:04;;;;;;;3.25;1.95;;;;;;;1.85;98.46;102080.25;5019649;28;20252;-69
2023/02/04 01:43:35;;;;;;;2.35;1.23;;;;;;;1.84;98.37;102090.06;5004844;28;20206;-69
2023/02/04 01:46:07;;;;;;;7.18;2.08;;;;;;;1.82;98.00;102083.16;4995350;28;20225;-71
2023/02/04 01:48:40;;;;;;;10.45;1.40;;;;;;;1.81;97.49;102101.00;4995556;28;20232;-68
2023/02/04 01:51:14;;;;;;;1.58;1.00;;;;;;;1.69;98.25;102104.59;5000832;28;20197;-68
2023/02/04 01:53:45;;;;;;;2.53;1.65;;;;;;;1.66;98.77;102110.16;5010188;28;20299;-70
2023/02/04 01:56:21;;;;;;;1.60;1.25;;;;;;;1.63;98.84;102129.94;4990093;28;20598;-69
2023/02/04 01:58:53;;;;;;;2.20;1.08;;;;;;;1.54;98.73;102132.44;4992467;28;20197;-69
2023/02/04 02:01:37;;;;;;;2.45;1.00;;;;;;;1.58;98.83;102149.91;5021681;28;20289;-69
2023/02/04 02:04:10;;;;;;;0.90;0.60;;;;;;;1.65;98.38;102160.00;4998576;28;20343;-68
2023/02/04 02:06:46;;;;;;;2.38;1.15;;;;;;;1.69;97.58;102155.31;4997163;28;20267;-69
2023/02/04 02:09:16;;;;;;;3.30;1.30;;;;;;;1.70;96.81;102171.19;5002878;28;20197;-70
2023/02/04 02:11:47;;;;;;;2.60;1.25;;;;;;;1.65;96.76;102172.50;4995584;28;20217;-68
2023/02/04 02:14:18;;;;;;;1.55;1.40;;;;;;;1.63;96.69;102179.78;5003065;28;20206;-67
2023/02/04 02:16:50;;;;;;;2.33;1.48;;;;;;;1.54;96.81;102180.47;5003449;28;20213;-70
2023/02/04 02:19:32;;;;;;;2.70;1.05;;;;;;;1.49;96.89;102185.28;4999898;28;20202;-68
2023/02/04 02:22:11;;;;;;;1.70;1.27;;;;;;;1.42;97.11;102192.00;4997064;28;20206;-68
2023/02/04 02:24:44;;;;;;;2.72;1.20;;;;;;;1.42;97.31;102208.00;5003175;28;20208;-70
2023/02/04 02:27:17;;;;;;;2.08;0.85;;;;;;;1.44;97.27;102211.44;5017244;28;20217;-68
2023/02/04 02:29:49;;;;;;;3.65;1.08;;;;;;;1.34;97.64;102210.41;5000512;28;20252;-68
2023/02/04 02:32:19;;;;;;;2.80;1.45;;;;;;;1.33;98.31;102225.53;4994920;28;20201;-67
2023/02/04 02:34:50;;;;;;;2.13;1.45;;;;;;;1.32;98.07;102218.50;5013164;28;20201;-69
2023/02/04 02:37:20;;;;;;;4.22;1.60;;;;;;;1.29;98.45;102235.59;5003308;28;20224;-69
2023/02/04 02:39:53;;;;;;;1.75;1.00;;;;;;;1.43;98.02;102244.41;5015868;28;20224;-68
2023/02/04 02:42:25;;;;;;;1.65;0.90;;;;;;;1.29;98.22;102238.25;5006228;28;20226;-69
2023/02/04 02:44:57;;;;;;;2.15;1.45;;;;;;;1.23;98.65;102240.50;4994792;28;20211;-69
2023/02/04 02:47:29;;;;;;;4.40;1.20;;;;;;;1.22;99.28;102249.44;4992634;28;20272;-69
2023/02/04 02:50:00;;;;;;;2.60;1.40;;;;;;;1.19;99.40;102255.88;4986756;28;20212;-69
2023/02/04 02:52:32;;;;;;;2.08;1.10;;;;;;;1.13;99.55;102255.44;5016058;28;20236;-69
2023/02/04 02:55:05;;;;;;;2.17;0.73;;;;;;;1.14;99.70;102279.34;5006182;28;20206;-69
2023/02/04 02:57:36;;;;;;;1.60;1.10;;;;;;;1.22;99.19;102279.63;4996230;28;20250;-69
2023/02/04 03:00:15;;;;;;;1.73;1.05;;;;;;;1.17;99.42;102284.44;5005768;28;20208;-69
2023/02/04 03:02:54;;;;;;;3.78;1.00;;;;;;;1.14;99.67;102291.81;5022228;28;20709;-69
2023/02/04 03:05:25;;;;;;;4.53;1.30;;;;;;;1.09;99.42;102297.47;4998085;28;20209;-69
2023/02/04 03:07:55;;;;;;;1.20;0.90;;;;;;;1.14;99.06;102300.66;4996763;28;20205;-70
2023/02/04 03:10:29;;;;;;;1.75;1.30;;;;;;;1.14;99.30;102310.47;5002728;28;20197;-69
2023/02/04 03:13:02;;;;;;;1.92;0.80;;;;;;;1.12;99.34;102315.91;5005205;28;20206;-69
2023/02/04 03:15:35;;;;;;;2.78;1.02;;;;;;;1.11;98.97;102319.56;5006758;28;20536;-69
2023/02/04 03:18:06;;;;;;;3.85;1.05;;;;;;;1.13;99.36;102330.94;5011708;28;20577;-69
2023/02/04 03:20:38;;;;;;;2.05;1.25;;;;;;;1.11;99.01;102327.56;5020155;28;20197;-69
2023/02/04 03:23:09;;;;;;;2.95;1.55;;;;;;;1.18;98.97;102328.81;5001834;28;20190;-68
2023/02/04 03:25:44;;;;;;;2.05;1.45;;;;;;;1.13;98.98;102341.63;5006588;28;20230;-68
2023/02/04 03:28:16;;;;;;;3.45;1.90;;;;;;;1.15;98.71;102358.38;5009568;28;20575;-68
2023/02/04 03:30:52;;;;;;;5.47;1.45;;;;;;;1.07;99.24;102368.69;4997522;28;20202;-69
2023/02/04 03:33:23;;;;;;;2.88;1.30;;;;;;;1.10;99.26;102379.16;5002470;28;20190;-70
2023/02/04 03:35:54;;;;;;;1.92;1.33;;;;;;;1.12;98.84;102371.03;4997784;28;20775;-69
2023/02/04 03:38:26;;;;;;;2.67;0.93;;;;;;;1.13;98.69;102389.63;5004829;28;20194;-69
2023/02/04 03:40:59;;;;;;;2.85;0.98;;;;;;;1.10;98.62;102395.16;4993003;28;20197;-69
2023/02/04 03:43:30;;;;;;;1.80;1.40;;;;;;;1.07;99.07;102410.50;5002599;28;20213;-70
2023/02/04 03:46:06;;;;;;;3.17;1.00;;;;;;;0.97;99.63;102420.94;5001854;28;20663;-70
2023/02/04 03:48:36;;;;;;;2.10;1.05;;;;;;;0.95;99.74;102433.53;5012136;28;20609;-69
2023/02/04 03:51:09;;;;;;;1.23;1.00;;;;;;;1.02;99.73;102434.81;4990735;28;20724;-69
2023/02/04 03:53:41;;;;;;;1.45;0.82;;;;;;;1.10;99.27;102448.50;5007030;28;20215;-70
2023/02/04 03:56:15;;;;;;;2.88;1.77;;;;;;;1.17;99.16;102457.78;5029102;28;20263;-69
2023/02/04 03:58:48;;;;;;;2.40;1.60;;;;;;;1.24;98.58;102463.56;5015764;28;20190;-69
2023/02/04 04:01:18;;;;;;;2.28;2.08;;;;;;;1.26;98.45;102458.94;5012307;28;20201;-69
2023/02/04 04:03:53;;;;;;;5.32;2.10;;;;;;;1.34;98.41;102469.13;5003627;28;20788;-69
2023/02/04 04:06:24;;;;;;;3.00;2.08;;;;;;;1.34;98.08;102477.97;4997361;28;20648;-70
2023/02/04 04:08:54;;;;;;;2.35;1.90;;;;;;;1.37;97.99;102487.56;4996001;28;20208;-70
2023/02/04 04:11:28;;;;;;;3.72;2.17;;;;;;;1.43;97.68;102488.03;5000447;28;20213;-69
2023/02/04 04:14:00;;;;;;;3.53;1.63;;;;;;;1.44;97.62;102486.22;4995902;28;20208;-70
2023/02/04 04:16:32;;;;;;;2.20;1.60;;;;;;;1.42;97.67;102496.97;5030288;28;20212;-68
2023/02/04 04:19:05;;;;;;;3.67;2.25;;;;;;;1.49;97.68;102498.28;5009213;28;20205;-68
2023/02/04 04:21:35;;;;;;;3.58;1.48;;;;;;;1.45;97.35;102510.13;4999567;28;20209;-70
2023/02/04 04:24:07;;;;;;;3.83;1.77;;;;;;;1.40;97.34;102514.91;4986990;28;20676;-68
2023/02/04 04:26:40;;;;;;;10.68;1.85;;;;;;;1.33;97.97;102518.09;4999457;28;20221;-69
2023/02/04 04:29:12;;;;;;;2.88;1.50;;;;;;;1.25;98.52;102524.81;5004738;28;20651;-69
2023/02/04 04:31:43;;;;;;;4.07;1.73;;;;;;;1.27;98.92;102538.00;4996184;28;20209;-69
2023/02/04 04:34:14;;;;;;;3.38;1.55;;;;;;;1.23;98.72;102534.72;4997936;28;20202;-69
2023/02/04 04:36:47;;;;;;;2.85;1.60;;;;;;;1.17;99.10;102545.78;5004165;28;20312;-69
2023/02/04 04:39:18;;;;;;;2.67;2.15;;;;;;;1.11;99.43;102554.19;5008646;28;20201;-69
2023/02/04 04:41:50;;;;;;;3.15;1.40;;;;;;;0.99;100.00;102562.97;4997421;28;20220;-69
2023/02/04 04:44:22;;;;;;;5.30;1.95;;;;;;;0.87;100.00;102569.13;5011842;28;20201;-71
2023/02/04 04:46:52;;;;;;;1.90;1.42;;;;;;;0.98;100.00;102569.25;5004284;28;20248;-69
2023/02/04 04:49:23;;;;;;;7.47;2.08;;;;;;;0.87;100.00;102583.28;5004062;28;20206;-68
2023/02/04 04:51:56;;;;;;;2.50;1.50;;;;;;;0.78;100.00;102588.34;4996782;28;20232;-67
2023/02/04 04:54:28;;;;;;;3.38;1.70;;;;;;;0.78;100.00;102601.66;4998035;28;20237;-69
2023/02/04 04:57:02;;;;;;;2.13;1.48;;;;;;;0.72;100.00;102596.75;5007169;28;20321;-69
2023/02/04 04:59:32;;;;;;;3.08;1.40;;;;;;;0.68;100.00;102601.41;5015076;28;20212;-68
2023/02/04 05:02:03;;;;;;;2.97;1.40;;;;;;;0.63;100.00;102616.81;5017672;28;20224;-70
2023/02/04 05:04:34;;;;;;;1.80;1.60;;;;;;;0.55;100.00;102615.59;5016060;28;20273;-70
2023/02/04 05:07:06;;;;;;;2.60;1.60;;;;;;;0.71;100.00;102625.22;5022376;28;20213;-69
2023/02/04 05:09:38;;;;;;;3.85;1.58;;;;;;;0.59;100.00;102633.94;5009201;28;20208;-68
2023/02/04 05:12:12;;;;;;;2.83;1.60;;;;;;;0.54;100.00;102630.72;5005030;28;20197;-69
2023/02/04 05:14:44;;;;;;;3.10;1.80;;;;;;;0.59;100.00;102635.75;5026887;28;20201;-69
2023/02/04 05:17:15;;;;;;;3.70;1.85;;;;;;;0.59;100.00;102631.28;5031347;28;20214;-68
2023/02/04 05:19:45;;;;;;;3.60;1.95;;;;;;;0.57;100.00;102632.34;5013291;28;20204;-70
2023/02/04 05:22:15;;;;;;;5.25;1.73;;;;;;;0.53;100.00;102649.47;5001994;28;20225;-69
2023/02/04 05:24:46;;;;;;;3.33;2.05;;;;;;;0.51;100.00;102656.69;5002471;28;20228;-69
2023/02/04 05:27:19;;;;;;;2.85;1.80;;;;;;;0.49;100.00;102663.91;4992688;28;20209;-70
2023/02/04 05:29:51;;;;;;;2.50;1.75;;;;;;;0.43;100.00;102671.38;5005782;28;20209;-70
2023/02/04 05:32:21;;;;;;;1.67;1.42;;;;;;;0.38;100.00;102670.78;4996649;28;20193;-69
2023/02/04 05:34:51;;;;;;;5.07;2.88;;;;;;;0.54;100.00;102685.81;4996762;28;20228;-69
2023/02/04 05:37:23;;;;;;;6.07;3.08;;;;;;;0.50;100.00;102692.28;5023059;28;20225;-68
2023/02/04 05:39:54;;;;;;;4.47;3.42;;;;;;;0.47;100.00;102692.47;5014184;28;20198;-69
2023/02/04 05:42:27;;;;;;;4.30;2.30;;;;;;;0.29;100.00;102700.59;5000085;28;20209;-69
2023/02/04 05:44:59;;;;;;;7.50;2.85;;;;;;;0.18;100.00;102716.38;5020041;28;20201;-69
2023/02/04 05:47:30;;;;;;;5.32;1.73;;;;;;;0.29;100.00;102716.59;5001732;28;20739;-70
2023/02/04 05:50:00;;;;;;;3.03;2.20;;;;;;;0.33;100.00;102725.28;5007026;28;20213;-69
2023/02/04 05:52:31;;;;;;;3.60;2.25;;;;;;;0.26;100.00;102719.44;5003589;28;20586;-69
2023/02/04 05:55:08;;;;;;;5.32;2.05;;;;;;;0.31;100.00;102730.69;4995742;28;20582;-69
2023/02/04 05:57:40;;;;;;;5.30;1.58;;;;;;;0.28;100.00;102735.34;5002104;28;20661;-69
2023/02/04 06:00:14;;;;;;;2.63;1.10;;;;;;;0.27;100.00;102737.13;4998350;28;20232;-68
2023/02/04 06:02:45;;;;;;;7.60;2.40;;;;;;;0.26;100.00;102737.22;4996427;28;20210;-68
2023/02/04 06:05:17;;;;;;;2.95;1.90;;;;;;;0.17;100.00;102751.94;5004542;28;20201;-71
2023/02/04 06:07:49;;;;;;;4.53;1.85;;;;;;;0.20;100.00;102761.53;5003205;28;20653;-69
2023/02/04 06:10:21;;;;;;;8.13;2.92;;;;;;;0.15;100.00;102767.13;5016898;28;20584;-69
2023/02/04 06:12:54;;;;;;;2.58;1.75;;;;;;;0.15;100.00;102772.47;5014230;28;20194;-67
2023/02/04 06:15:25;;;;;;;3.78;1.45;;;;;;;0.28;100.00;102789.47;5030821;28;20247;-68
2023/02/04 06:17:57;;;;;;;3.97;1.80;;;;;;;0.15;100.00;102795.56;5017033;28;20197;-69
2023/02/04 06:20:27;;;;;;;4.13;2.00;;;;;;;0.15;100.00;102793.75;5022919;28;20198;-69
2023/02/04 06:23:00;;;;;;;5.05;2.40;;;;;;;0.11;100.00;102794.91;5014014;28;20217;-70
2023/02/04 06:25:31;;;;;;;2.45;2.10;;;;;;;0.14;100.00;102791.22;5005849;28;20649;-69
2023/02/04 06:28:02;;;;;;;1.70;1.25;;;;;;;0.17;100.00;102799.88;4999262;28;20198;-69
2023/02/04 06:30:33;;;;;;;2.78;1.30;;;;;;;0.08;100.00;102795.09;5012246;28;20208;-69
2023/02/04 06:33:05;;;;;;;5.35;1.85;;;;;;;0.07;100.00;102806.66;5001141;28;20402;-69
2023/02/04 06:35:35;;;;;;;3.33;1.23;;;;;;;-0.02;100.00;102815.19;4999098;28;20606;-69
2023/02/04 06:38:07;;;;;;;2.90;1.42;;;;;;;-0.09;100.00;102811.13;5006762;28;20635;-68
2023/02/04 06:40:37;;;;;;;2.65;1.15;;;;;;;-0.08;100.00;102829.69;5011615;28;20255;-69
2023/02/04 06:43:10;;;;;;;2.85;1.80;;;;;;;0.04;100.00;102828.16;4999031;28;20206;-68
2023/02/04 06:45:41;;;;;;;3.67;1.77;;;;;;;0.04;100.00;102820.16;4998724;28;20641;-68
2023/02/04 06:48:13;;;;;;;2.95;1.58;;;;;;;0.11;100.00;102824.19;5004203;28;20251;-69
2023/02/04 06:50:43;;;;;;;2.15;1.80;;;;;;;0.05;100.00;102827.19;4998000;28;20225;-69
2023/02/04 06:53:14;;;;;;;4.53;2.38;;;;;;;0.10;100.00;102824.28;5009737;28;20202;-69
2023/02/04 06:55:45;;;;;;;3.83;2.28;;;;;;;-0.02;100.00;102818.72;4997352;28;20234;-67
2023/02/04 06:58:19;;;;;;;2.92;2.00;;;;;;;0.03;100.00;102823.78;5011055;28;20197;-68
2023/02/04 07:00:50;;;;;;;6.80;6.20;;;;;;;-0.01;100.00;102832.88;4998030;28;20204;-69
2023/02/04 07:03:25;;;;;;;11.38;8.73;;;;;;;-0.09;100.00;102832.44;5019882;28;20209;-69
2023/02/04 07:05:59;;;;;;;4.53;3.25;;;;;;;-0.04;100.00;102830.38;5011158;28;20222;-69
2023/02/04 07:08:29;;;;;;;8.45;3.30;;;;;;;0.05;100.00;102834.34;4999170;28;20208;-68
2023/02/04 07:11:01;;;;;;;3.42;3.13;;;;;;;0.08;100.00;102832.34;5003620;28;20297;-70
2023/02/04 07:13:34;;;;;;;7.03;4.15;;;;;;;0.03;100.00;102828.22;4998195;28;20645;-70
2023/02/04 07:16:06;;;;;;;15.18;13.45;;;;;;;0.02;100.00;102829.16;4998629;28;20272;-68
2023/02/04 07:18:37;;;;;;;25.05;22.35;;;;;;;0.11;100.00;102840.16;5015099;28;20186;-69
2023/02/04 07:21:08;;;;;;;4.80;2.40;;;;;;;0.14;100.00;102850.66;4999029;28;20224;-68
2023/02/04 07:23:38;;;;;;;5.82;2.17;;;;;;;0.22;100.00;102848.41;5015649;28;20213;-70
2023/02/04 07:26:08;;;;;;;5.55;3.30;;;;;;;0.22;100.00;102859.06;5009449;28;20225;-69
2023/02/04 07:28:43;;;;;;;4.22;3.22;;;;;;;0.38;100.00;102865.22;5009027;28;20248;-69
2023/02/04 07:31:14;;;;;;;7.38;4.15;;;;;;;0.39;100.00;102876.69;5002967;28;20204;-70
2023/02/04 07:33:44;;;;;;;9.30;6.70;;;;;;;0.40;100.00;102884.63;5012388;28;20224;-69
2023/02/04 07:36:16;;;;;;;6.63;3.13;;;;;;;0.54;100.00;102885.63;5011782;28;20225;-69
2023/02/04 07:38:48;;;;;;;9.68;3.28;;;;;;;0.61;100.00;102892.31;5004457;28;20707;-69
2023/02/04 07:41:19;;;;;;;2.95;1.88;;;;;;;0.62;100.00;102888.72;5002998;28;20205;-70
2023/02/04 07:43:53;;;;;;;8.90;2.95;;;;;;;0.53;100.00;102894.59;5001277;28;20325;-70
2023/02/04 07:46:24;;;;;;;5.53;3.72;;;;;;;0.69;100.00;102901.56;5000577;28;20228;-69
2023/02/04 07:48:58;;;;;;;5.18;3.30;;;;;;;0.69;100.00;102911.38;5010326;28;20198;-69
2023/02/04 07:51:30;;;;;;;3.10;2.45;;;;;;;0.73;100.00;102916.44;5010792;28;20201;-67
2023/02/04 07:54:01;;;;;;;2.73;2.20;;;;;;;0.83;100.00;102924.75;4941030;28;1669209;-69
2023/02/04 07:56:32;;;;;;;5.85;2.45;;;;;;;0.83;100.00;102927.41;5013734;28;20225;-69
2023/02/04 07:59:04;;;;;;;5.82;2.67;;;;;;;0.93;100.00;102925.06;5008370;28;20651;-69
2023/02/04 08:01:38;;;;;;;4.38;2.00;;;;;;;1.02;100.00;102929.84;5009994;28;20673;-68
2023/02/04 08:04:09;;;;;;;4.65;2.50;;;;;;;1.13;100.00;102938.09;5035451;28;20222;-69
2023/02/04 08:06:41;;;;;;;4.20;2.13;;;;;;;1.15;100.00;102934.38;5027650;28;20221;-70
2023/02/04 08:09:16;;;;;;;2.63;2.28;;;;;;;1.26;100.00;102949.72;5017377;28;20197;-68
2023/02/04 08:11:48;;;;;;;5.57;2.70;;;;;;;1.34;100.00;102950.13;5003019;28;20221;-69
2023/02/04 08:14:20;;;;;;;6.10;2.90;;;;;;;1.42;100.00;102955.88;5013035;28;20193;-68
2023/02/04 08:16:51;;;;;;;4.18;2.20;;;;;;;1.48;100.00;102957.31;5005708;28;20233;-69
2023/02/04 08:19:23;;;;;;;6.05;2.55;;;;;;;1.53;100.00;102965.91;5012969;28;20208;-69
2023/02/04 08:21:54;;;;;;;2.97;2.13;;;;;;;1.67;99.70;102965.91;5003331;28;20202;-70
2023/02/04 08:24:24;;;;;;;3.58;1.80;;;;;;;1.68;99.58;102975.63;5005001;28;20202;-68
2023/02/04 08:26:54;;;;;;;2.38;1.38;;;;;;;1.69;99.16;102977.34;5004188;28;20235;-68
2023/02/04 08:29:28;;;;;;;4.15;1.75;;;;;;;1.74;98.46;102983.28;5015340;28;20204;-68
2023/02/04 08:31:59;;;;;;;2.40;1.75;;;;;;;1.77;97.94;102983.06;5016662;28;20202;-69
2023/02/04 08:34:30;;;;;;;3.28;1.83;;;;;;;1.88;97.60;102996.63;5010347;28;20249;-68
2023/02/04 08:37:01;;;;;;;4.53;1.77;;;;;;;1.95;96.38;102991.75;5021148;28;20217;-69
2023/02/04 08:39:32;;;;;;;3.40;1.35;;;;;;;1.92;95.89;102987.47;5003723;28;20205;-69
2023/02/04 08:42:03;;;;;;;4.10;1.70;;;;;;;2.01;96.23;102988.69;5027146;28;20229;-68
2023/02/04 08:44:35;;;;;;;1.80;1.50;;;;;;;2.03;95.10;102994.81;5006381;28;20213;-68
2023/02/04 08:47:06;;;;;;;3.33;1.83;;;;;;;2.01;95.00;102981.56;5014875;28;20228;-69
2023/02/04 08:49:40;;;;;;;3.97;1.50;;;;;;;2.13;94.22;102986.09;5005868;28;20216;-69
2023/02/04 08:52:11;;;;;;;4.25;1.30;;;;;;;2.12;94.50;102994.25;5007968;28;20687;-69
2023/02/04 08:54:43;;;;;;;8.30;1.70;;;;;;;2.22;92.72;103000.72;5018650;28;20205;-69
2023/02/04 08:57:16;;;;;;;3.22;1.17;;;;;;;2.27;92.94;103000.44;5020079;28;20730;-69
2023/02/04 08:59:48;;;;;;;4.03;1.92;;;;;;;2.46;91.45;103009.84;5016158;28;20212;-69
2023/02/04 09:02:19;;;;;;;3.30;2.00;;;;;;;2.45;91.67;103012.59;5008314;28;20206;-69
2023/02/04 09:04:51;;;;;;;4.70;1.80;;;;;;;2.47;91.08;103013.38;5028379;28;20202;-69
2023/02/04 09:07:21;;;;;;;2.67;1.60;;;;;;;2.49;90.77;103019.47;5010518;28;20285;-68
2023/02/04 09:09:52;;;;;;;4.35;2.17;;;;;;;2.52;90.58;103013.91;5010692;28;20289;-67
2023/02/04 09:12:25;;;;;;;2.83;1.85;;;;;;;2.69;90.33;103019.03;5015937;28;20201;-69
2023/02/04 09:14:58;;;;;;;4.18;2.08;;;;;;;2.71;90.05;103018.97;5015813;28;20201;-69
2023/02/04 09:17:28;;;;;;;2.53;1.55;;;;;;;2.77;88.68;103023.88;5021337;28;20251;-68
2023/02/04 09:20:00;;;;;;;2.53;1.42;;;;;;;2.85;87.95;103029.59;5009669;28;20194;-68
2023/02/04 09:22:31;;;;;;;2.65;2.10;;;;;;;2.72;87.88;103036.69;5010840;28;20247;-68
2023/02/04 09:25:03;;;;;;;2.90;1.48;;;;;;;2.82;87.69;103037.81;5006188;28;20643;-69
2023/02/04 09:27:34;;;;;;;3.50;0.98;;;;;;;2.86;88.58;103045.53;5004807;28;20226;-69
2023/02/04 09:30:07;;;;;;;4.10;1.42;;;;;;;3.14;87.14;103043.75;5019697;28;20214;-70
2023/02/04 09:32:38;;;;;;;2.90;1.80;;;;;;;3.11;85.97;103063.50;5006556;28;20214;-69
2023/02/04 09:35:08;;;;;;;1.70;0.85;;;;;;;3.11;85.07;103065.31;5011325;28;20197;-70
2023/02/04 09:37:43;;;;;;;4.10;2.25;;;;;;;3.20;85.09;103068.25;5013333;28;20200;-70
2023/02/04 09:40:17;;;;;;;4.40;1.38;;;;;;;3.18;85.33;103072.00;5012844;28;20259;-69
2023/02/04 09:42:49;;;;;;;2.53;1.63;;;;;;;3.35;84.18;103069.91;5022752;28;20189;-70
2023/02/04 09:45:26;;;;;;;1.73;1.05;;;;;;;3.52;83.69;103081.31;5016793;28;20213;-69
2023/02/04 09:48:00;;;;;;;1.48;0.90;;;;;;;3.47;82.13;103071.78;5018143;28;20209;-70
2023/02/04 09:50:32;;;;;;;1.90;1.10;;;;;;;3.49;82.27;103085.03;5015385;28;20202;-70
2023/02/04 09:53:07;;;;;;;2.10;1.40;;;;;;;3.56;82.58;103078.31;5006386;28;20292;-69
2023/02/04 09:55:41;;;;;;;1.48;1.15;;;;;;;3.60;81.08;103074.47;5023351;28;20225;-70
2023/02/04 09:58:16;;;;;;;3.58;1.15;;;;;;;3.41;81.03;103071.31;5025033;28;20236;-70
2023/02/04 10:00:59;;;;;;;2.97;1.50;;;;;;;3.57;81.37;103084.53;5036188;28;20189;-70
2023/02/04 10:03:30;;;;;;;2.13;1.45;;;;;;;3.79;80.86;103080.28;5027318;28;20205;-71
2023/02/04 10:06:03;;;;;;;0.90;0.70;;;;;;;3.75;79.26;103081.47;5026791;28;20263;-70
2023/02/04 10:08:37;;;;;;;4.10;0.93;;;;;;;3.70;78.10;103097.00;5022933;28;20170;-69
2023/02/04 10:11:09;;;;;;;7.75;1.80;;;;;;;3.55;77.96;103084.63;5038614;28;20255;-69
2023/02/04 10:13:43;;;;;;;15.05;1.58;;;;;;;3.60;78.09;103087.84;5032039;28;20209;-70
2023/02/04 10:16:19;;;;;;;1.30;0.93;;;;;;;3.67;77.43;103094.53;5026655;28;20221;-68
2023/02/04 10:18:51;;;;;;;2.17;0.85;;;;;;;3.99;76.66;103091.44;5008826;28;20213;-70
2023/02/04 10:21:27;;;;;;;2.75;0.90;;;;;;;3.99;75.20;103102.16;5020580;28;20202;-70
2023/02/04 10:24:02;;;;;;;1.75;0.95;;;;;;;4.03;75.31;103099.16;4976449;28;20685;-69
2023/02/04 10:26:35;;;;;;;4.00;1.00;;;;;;;3.93;74.95;103098.94;4983558;28;20229;-70
2023/02/04 10:29:11;;;;;;;3.85;1.05;;;;;;;4.03;73.32;103092.94;5000617;28;20215;-69
2023/02/04 10:31:44;;;;;;;6.72;1.00;;;;;;;3.83;74.32;103102.34;5001800;28;20209;-71
2023/02/04 10:34:19;;;;;;;4.45;2.15;;;;;;;3.48;74.50;103102.94;4995351;28;20206;-69
2023/02/04 10:36:56;;;;;;;11.68;10.57;;;;;;;3.42;74.66;103108.69;5002882;28;20768;-69
2023/02/04 10:39:31;;;;;;;9.07;8.13;;;;;;;3.55;72.15;103102.50;4995136;28;20206;-69
2023/02/04 10:42:05;;;;;;;2.95;2.70;;;;;;;3.69;72.15;103105.97;5008788;28;20221;-69
2023/02/04 10:44:46;;;;;;;3.92;1.70;;;;;;;4.02;70.74;103101.97;4989603;28;20202;-70
2023/02/04 10:47:25;;;;;;;5.03;2.35;;;;;;;3.82;70.12;103112.25;5001398;28;20229;-68
2023/02/04 10:50:01;;;;;;;3.17;2.05;;;;;;;3.70;70.80;103107.69;4995877;28;20201;-70
2023/02/04 10:52:36;;;;;;;3.35;2.40;;;;;;;3.75;70.70;103102.91;5027845;28;20193;-69
2023/02/04 10:55:12;;;;;;;2.75;1.10;;;;;;;4.10;69.87;103113.00;4999199;28;20205;-70
2023/02/04 10:57:45;;;;;;;3.90;1.83;;;;;;;4.10;67.90;103116.56;4998600;28;20328;-69
2023/02/04 11:00:19;;;;;;;2.83;1.60;;;;;;;4.19;67.62;103107.00;5008492;28;20724;-69
2023/02/04 11:02:57;;;;;;;3.08;2.85;;;;;;;4.38;67.83;103102.06;5009009;28;20577;-68
2023/02/04 11:05:33;;;;;;;1.00;0.77;;;;;;;4.43;66.90;103107.97;5011883;28;20590;-68
2023/02/04 11:08:18;;;;;;;3.28;1.88;;;;;;;4.57;67.29;103115.88;4999010;28;20249;-69
2023/02/04 11:10:55;;;;;;;5.63;1.33;;;;;;;4.35;66.60;103119.25;5016750;28;20279;-69
2023/02/04 11:13:39;;;;;;;2.72;1.52;;;;;;;4.27;66.52;103118.91;5002427;28;20201;-70
2023/02/04 11:16:13;;;;;;;1.67;1.35;;;;;;;4.13;65.27;103119.00;5006431;28;20312;-70
2023/02/04 11:18:52;;;;;;;2.28;2.08;;;;;;;4.25;64.48;103122.66;4987528;28;20237;-69
2023/02/04 11:21:29;;;;;;;2.38;1.48;;;;;;;4.36;64.08;103117.38;5015835;28;20292;-69
2023/02/04 11:24:22;;;;;;;3.75;2.28;;;;;;;4.54;63.64;103121.47;4998448;28;20204;-70
2023/02/04 11:27:05;;;;;;;1.00;0.70;;;;;;;4.08;64.95;103118.47;5008348;28;20236;-70
2023/02/04 11:29:38;;;;;;;3.90;3.58;;;;;;;4.13;65.22;103131.53;5011540;28;20303;-69
2023/02/04 11:32:30;;;;;;;8.30;7.55;;;;;;;4.10;66.10;103138.00;5013714;28;20293;-69
2023/02/04 11:35:26;;;;;;;3.15;1.40;;;;;;;4.58;66.04;103133.69;4997119;28;20198;-70
2023/02/04 11:37:57;;;;;;;2.53;1.27;;;;;;;4.59;65.51;103134.56;4998160;28;20288;-70
2023/02/04 11:40:31;;;;;;;3.65;1.33;;;;;;;4.57;66.28;103136.47;4997903;28;20205;-69
2023/02/04 11:43:04;;;;;;;3.72;1.27;;;;;;;4.37;66.40;103141.41;5007518;28;20608;-70
2023/02/04 11:45:37;;;;;;;2.78;1.17;;;;;;;4.08;66.81;103145.25;4998835;28;20212;-69
2023/02/04 11:48:15;;;;;;;2.65;2.10;;;;;;;3.83;66.97;103148.75;4997453;28;20202;-69
2023/02/04 11:50:57;;;;;;;1.23;0.80;;;;;;;3.79;67.55;103154.41;5002385;28;20256;-69
2023/02/04 11:53:31;;;;;;;2.83;1.42;;;;;;;3.97;67.60;103163.06;5008350;28;20288;-68
2023/02/04 11:56:02;;;;;;;2.15;1.50;;;;;;;4.34;66.66;103162.22;5004884;28;20669;-68